Time;durP1;ratioP1;P1;durP2;ratioP2;P2;SDS_P1;SDS_P2;PMS_P1;PMS_P2;Temp;Humidity;BMP_temperature;BMP_pressure;BME280_temperature;BME280_humidity;BME280_pressure;Samples;Min_cycle;Max_cycle;Signal;HPM_P1;HPM_P2
2022/03/21 00:00:33;;;;;;;;;64.25;47.50;;;;;9.10;51.70;102372.84;5076988;28;45341;-74
2022/03/21 00:02:58;;;;;;;;;63.00;48.00;;;;;8.98;51.85;102364.25;5077747;28;47486;-72
2022/03/21 00:05:24;;;;;;;;;58.25;46.00;;;;;9.12;51.13;102387.03;5077639;28;47143;-73
2022/03/21 00:07:49;;;;;;;;;56.75;46.00;;;;;9.02;51.22;102368.88;5082480;27;45323;-73
2022/03/21 00:10:15;;;;;;;;;60.75;47.00;;;;;8.80;51.44;102343.94;5077713;28;45326;-73
2022/03/21 00:12:40;;;;;;;;;59.25;47.00;;;;;9.00;51.36;102394.28;5075722;28;45279;-73
2022/03/21 00:15:09;;;;;;;;;55.25;45.00;;;;;8.83;51.76;102359.94;5077992;28;47188;-73
2022/03/21 00:17:35;;;;;;;;;61.25;46.50;;;;;9.00;51.53;102397.81;5083843;27;45234;-73
2022/03/21 00:20:01;;;;;;;;;58.00;46.25;;;;;8.86;51.84;102373.28;5077952;28;45451;-73
2022/03/21 00:22:26;;;;;;;;;57.75;46.00;;;;;8.86;52.32;102377.66;5068932;28;45230;-73
2022/03/21 00:24:52;;;;;;;;;57.25;43.25;;;;;8.73;52.49;102363.78;5078191;28;45978;-73
2022/03/21 00:27:18;;;;;;;;;62.25;48.00;;;;;8.84;51.41;102382.84;5070167;27;45334;-73
2022/03/21 00:29:43;;;;;;;;;60.75;46.50;;;;;8.75;52.32;102374.41;5080003;28;45289;-73
2022/03/21 00:32:09;;;;;;;;;58.00;45.50;;;;;8.78;53.18;102384.22;5071184;27;45396;-73
2022/03/21 00:34:35;;;;;;;;;58.50;45.75;;;;;8.33;53.41;102320.13;5080322;28;46038;-73
2022/03/21 00:37:00;;;;;;;;;58.50;46.50;;;;;8.71;51.83;102391.78;5072774;28;45283;-73
2022/03/21 00:39:25;;;;;;;;;64.00;48.00;;;;;8.70;52.79;102389.06;5080460;28;45532;-73
2022/03/21 00:41:51;;;;;;;;;58.25;45.00;;;;;8.69;52.84;102387.25;5073410;28;45374;-73
2022/03/21 00:44:16;;;;;;;;;65.00;48.00;;;;;8.51;53.99;102361.66;5080088;28;46072;-73
2022/03/21 00:46:42;;;;;;;;;63.00;48.75;;;;;8.56;53.94;102363.63;5075053;27;45162;-73
2022/03/21 00:49:11;;;;;;;;;64.75;49.75;;;;;8.36;53.99;102320.28;5066516;28;45225;-73
2022/03/21 00:51:37;;;;;;;;;58.50;46.75;;;;;8.68;54.79;102388.06;5074875;28;47176;-73
2022/03/21 00:54:03;;;;;;;;;65.00;50.25;;;;;8.50;55.00;102361.56;5080033;28;46323;-73
2022/03/21 00:56:28;;;;;;;;;57.00;46.50;;;;;8.55;52.04;102375.00;5087972;27;45365;-73
2022/03/21 00:58:53;;;;;;;;;63.50;48.50;;;;;8.39;54.09;102339.84;5079020;28;45263;-73
2022/03/21 01:01:19;;;;;;;;;69.75;50.75;;;;;8.57;54.76;102375.97;5070987;28;45327;-73
2022/03/21 01:03:44;;;;;;;;;61.50;48.50;;;;;8.47;53.33;102350.84;5080601;27;46220;-73
2022/03/21 01:06:09;;;;;;;;;62.25;47.75;;;;;8.35;54.31;102332.56;5070523;27;45489;-73
2022/03/21 01:08:35;;;;;;;;;59.75;46.25;;;;;8.19;54.68;102308.78;5080865;27;45322;-73
2022/03/21 01:11:00;;;;;;;;;67.75;52.00;;;;;8.45;54.87;102365.66;5070451;28;45324;-73
2022/03/21 01:13:25;;;;;;;;;61.25;50.25;;;;;8.54;55.28;102389.00;5080298;27;45336;-73
2022/03/21 01:15:51;;;;;;;;;64.75;49.00;;;;;8.52;54.91;102388.91;5075359;27;45474;-73
2022/03/21 01:18:16;;;;;;;;;58.00;47.75;;;;;8.50;53.10;102386.19;5067993;27;45437;-73
2022/03/21 01:20:42;;;;;;;;;64.00;49.00;;;;;8.49;54.87;102386.09;5077388;28;45334;-73
2022/03/21 01:23:07;;;;;;;;;58.75;46.75;;;;;8.40;54.23;102370.66;5069046;28;45976;-73
2022/03/21 01:25:32;;;;;;;;;59.75;48.25;;;;;8.30;55.61;102361.28;5078270;27;45217;-73
2022/03/21 01:27:58;;;;;;;;;64.00;47.75;;;;;8.26;56.51;102358.34;5079369;28;45383;-73
2022/03/21 01:30:23;;;;;;;;;58.25;46.00;;;;;8.43;55.29;102388.34;5080486;27;45215;-73
2022/03/21 01:32:49;;;;;;;;;59.75;46.75;;;;;8.32;55.28;102363.06;5078950;28;48284;-73
2022/03/21 01:35:21;;;;;;;;;61.00;47.25;;;;;8.33;55.38;102368.44;5072284;28;45388;-73
2022/03/21 01:37:47;;;;;;;;;68.00;51.50;;;;;8.03;56.00;102321.03;5074835;28;45307;-73
2022/03/21 01:40:14;;;;;;;;;62.50;48.75;;;;;8.39;54.51;102384.66;5079055;27;45191;-73
2022/03/21 01:42:43;;;;;;;;;59.25;48.00;;;;;8.05;56.60;102329.94;5080510;27;46046;-73
2022/03/21 01:45:10;;;;;;;;;62.25;47.50;;;;;8.34;53.90;102380.78;5079719;28;45280;-73
2022/03/21 01:47:35;;;;;;;;;67.25;49.25;;;;;8.34;55.99;102388.69;5074764;27;45343;-73
2022/03/21 01:50:03;;;;;;;;;61.25;46.50;;;;;8.34;54.36;102393.06;5076922;27;46918;-73
2022/03/21 01:52:29;;;;;;;;;59.00;48.75;;;;;8.25;55.45;102375.88;5075782;28;46230;-73
2022/03/21 01:57:41;;;;;;;;;63.75;47.75;;;;;8.29;53.70;102388.44;5078509;28;45307;-73
2022/03/21 02:00:07;;;;;;;;;62.50;48.75;;;;;8.18;54.79;102372.81;5055214;28;45805;-73
2022/03/21 02:02:33;;;;;;;;;66.75;48.25;;;;;8.22;56.42;102383.63;5072294;28;45374;-73
2022/03/21 02:04:58;;;;;;;;;58.75;47.00;;;;;8.12;57.18;102354.00;5078758;28;45334;-74
2022/03/21 02:07:25;;;;;;;;;59.50;45.75;;;;;8.16;54.92;102356.91;5071331;28;45468;-73
2022/03/21 02:09:50;;;;;;;;;58.75;44.75;;;;;8.21;56.52;102368.63;5075264;27;45489;-73
2022/03/21 02:12:16;;;;;;;;;60.00;48.25;;;;;8.36;54.93;102397.59;5068173;28;45541;-73
2022/03/21 02:14:42;;;;;;;;;58.25;43.25;;;;;8.36;54.12;102391.44;5072294;28;45299;-73
2022/03/21 02:17:10;;;;;;;;;57.50;46.50;;;;;8.30;57.13;102399.88;5068563;28;45461;-73
2022/03/21 02:19:38;;;;;;;;;61.00;46.00;;;;;8.34;56.08;102396.59;5073735;28;45517;-73
2022/03/21 02:22:29;;;;;;;;;60.25;46.25;;;;;8.33;56.03;102388.63;5069561;28;47147;-73
2022/03/21 02:25:29;;;;;;;;;57.25;46.25;;;;;8.33;54.60;102380.72;5066377;28;45244;-73
2022/03/21 02:27:58;;;;;;;;;60.00;46.75;;;;;8.34;56.04;102379.88;5069285;28;45287;-73
2022/03/21 02:30:27;;;;;;;;;60.50;46.25;;;;;8.04;54.32;102337.78;5078751;28;45524;-73
2022/03/21 02:32:54;;;;;;;;;61.50;48.75;;;;;8.05;54.50;102351.00;5077103;28;45368;-73
2022/03/21 02:35:20;;;;;;;;;55.00;45.00;;;;;7.97;55.44;102340.84;5076969;28;45858;-73
2022/03/21 02:37:46;;;;;;;;;56.50;44.00;;;;;8.03;57.32;102359.63;5071651;28;45499;-73
2022/03/21 02:40:12;;;;;;;;;58.50;45.75;;;;;8.06;54.13;102354.53;5078268;28;45237;-73
2022/03/21 02:42:38;;;;;;;;;62.25;48.00;;;;;8.11;58.05;102365.38;5077632;28;46645;-73
2022/03/21 02:45:05;;;;;;;;;59.25;46.50;;;;;8.05;57.12;102355.38;5078519;28;45221;-72
2022/03/21 02:47:30;;;;;;;;;59.75;47.75;;;;;8.07;57.63;102367.81;5073411;27;45195;-73
2022/03/21 02:49:57;;;;;;;;;56.50;44.75;;;;;7.99;57.36;102355.00;5074005;28;46039;-73
2022/03/21 02:52:28;;;;;;;;;57.75;45.75;;;;;7.90;58.11;102346.53;5073984;28;46473;-73
2022/03/21 02:54:53;;;;;;;;;60.00;47.00;;;;;7.80;58.28;102342.47;5078085;28;45383;-73
2022/03/21 02:57:18;;;;;;;;;57.25;45.75;;;;;7.96;58.07;102368.00;5072462;27;45292;-72
2022/03/21 02:59:44;;;;;;;;;55.75;45.50;;;;;7.83;57.75;102340.00;5078050;28;45275;-73
2022/03/21 03:02:10;;;;;;;;;60.75;45.25;;;;;7.83;56.99;102345.28;5070051;27;45510;-73
2022/03/21 03:04:35;;;;;;;;;55.00;44.50;;;;;7.90;57.24;102371.19;5078079;27;45299;-73
2022/03/21 03:07:00;;;;;;;;;60.50;47.50;;;;;7.93;56.19;102368.72;5076992;28;45144;-73
2022/03/21 03:09:26;;;;;;;;;60.00;46.25;;;;;7.76;57.97;102343.13;5076291;28;47107;-72
2022/03/21 03:11:51;;;;;;;;;54.50;43.25;;;;;7.91;58.17;102369.44;5067077;28;45922;-73
2022/03/21 03:14:16;;;;;;;;;53.25;44.00;;;;;7.89;58.06;102366.69;5072046;28;45221;-73
2022/03/21 03:16:42;;;;;;;;;65.25;49.25;;;;;7.86;58.73;102369.16;5068751;27;45361;-73
2022/03/21 03:19:07;;;;;;;;;54.75;43.00;;;;;7.90;58.62;102371.19;5070749;28;46826;-73
2022/03/21 03:21:39;;;;;;;;;57.50;45.75;;;;;7.65;56.84;102333.66;5072133;27;45437;-73
2022/03/21 03:24:08;;;;;;;;;61.00;47.75;;;;;7.88;56.31;102372.78;5073104;28;45687;-73
2022/03/21 03:26:33;;;;;;;;;51.75;39.50;;;;;7.70;58.32;102341.00;5074543;27;45465;-73
2022/03/21 03:28:59;;;;;;;;;62.00;46.75;;;;;7.50;57.28;102308.19;5072144;28;47357;-73
2022/03/21 03:31:24;;;;;;;;;57.75;41.25;;;;;7.83;55.06;102364.59;5075200;27;46080;-73
2022/03/21 03:33:49;;;;;;;;;57.00;44.50;;;;;7.82;57.22;102369.81;5074531;28;45429;-73
2022/03/21 03:36:16;;;;;;;;;54.00;42.75;;;;;7.78;58.04;102373.03;5077998;28;45496;-73
2022/03/21 03:38:47;;;;;;;;;55.75;44.75;;;;;7.76;56.04;102379.97;5074102;28;46119;-72
2022/03/21 03:41:13;;;;;;;;;56.25;46.25;;;;;7.74;57.08;102376.31;5076844;28;45408;-73
2022/03/21 03:43:39;;;;;;;;;55.25;46.50;;;;;7.69;58.76;102372.50;5074566;28;45265;-73
2022/03/21 03:46:04;;;;;;;;;57.75;45.25;;;;;7.54;59.12;102349.69;5071071;28;45331;-73
2022/03/21 03:48:30;;;;;;;;;57.75;44.50;;;;;7.68;57.03;102370.69;5081180;27;45346;-73
2022/03/21 03:50:56;;;;;;;;;57.50;45.75;;;;;7.70;57.87;102375.22;5072930;28;45358;-72
2022/03/21 03:53:22;;;;;;;;;55.00;46.50;;;;;7.77;59.12;102387.94;5080794;28;45311;-72
2022/03/21 03:55:48;;;;;;;;;56.00;45.00;;;;;7.77;59.35;102385.31;5077543;27;45419;-72
2022/03/21 03:58:14;;;;;;;;;56.00;45.50;;;;;7.69;59.58;102372.50;5077925;27;45337;-73
2022/03/21 04:00:39;;;;;;;;;57.75;45.00;;;;;7.60;59.63;102344.78;5075226;28;46253;-72
2022/03/21 04:05:49;;;;;;;;;46.00;37.50;;;;;7.74;56.97;102361.44;5073963;28;45147;-72
2022/03/21 04:08:15;;;;;;;;;54.00;42.50;;;;;7.86;56.26;102390.22;5079339;28;45235;-73
2022/03/21 04:10:40;;;;;;;;;56.25;46.50;;;;;7.81;59.90;102384.69;5071777;28;47349;-73
2022/03/21 04:13:05;;;;;;;;;78.33;61.00;;;;;7.95;57.71;102401.28;5064557;28;45250;-72
2022/03/21 04:15:31;;;;;;;;;261.75;212.00;;;;;7.66;58.26;102348.63;5076376;28;45314;-72
2022/03/21 04:18:01;;;;;;;;;121.75;103.00;;;;;7.92;59.21;102387.94;5079795;28;46242;-73
2022/03/21 04:20:29;;;;;;;;;72.50;55.25;;;;;8.03;57.89;102405.31;5073660;28;47956;-72
2022/03/21 04:22:54;;;;;;;;;92.33;71.00;;;;;7.81;58.83;102367.97;5069942;27;45324;-72
2022/03/21 04:25:20;;;;;;;;;89.33;65.00;;;;;8.11;59.47;102413.69;5079244;28;45347;-73
2022/03/21 04:27:45;;;;;;;;;515.67;432.00;;;;;8.04;59.17;102399.25;5070959;27;45503;-73
2022/03/21 04:30:11;;;;;;;;;185.50;161.50;;;;;8.14;57.33;102410.31;5080426;28;45219;-73
2022/03/21 04:32:36;;;;;;;;;143.00;122.50;;;;;8.14;58.63;102405.06;5072059;27;45340;-73
2022/03/21 04:35:03;;;;;;;;;290.00;238.00;;;;;7.97;58.37;102377.72;5080554;28;45437;-73
2022/03/21 04:37:29;;;;;;;;;63.50;49.75;;;;;8.10;57.94;102413.59;5079542;28;46189;-73
2022/03/21 04:39:54;;;;;;;;;106.00;93.33;;;;;8.00;58.73;102383.16;5079132;27;46275;-73
2022/03/21 04:42:21;;;;;;;;;133.50;116.50;;;;;7.97;58.92;102375.97;5073837;28;44670;-73
2022/03/21 04:44:48;;;;;;;;;73.75;56.00;;;;;8.13;58.25;102405.88;5080462;28;45474;-73
2022/03/21 04:47:14;;;;;;;;;62.75;50.25;;;;;8.04;59.63;102388.72;5073179;28;47123;-73
2022/03/21 04:49:39;;;;;;;;;90.33;80.33;;;;;8.08;58.64;102400.31;5075080;28;45288;-73
2022/03/21 04:52:06;;;;;;;;;413.50;355.25;;;;;8.11;59.59;102395.25;5071567;27;45233;-73
2022/03/21 04:54:32;;;;;;;;;223.00;196.00;;;;;8.22;57.72;102419.59;5077445;28;45676;-73
2022/03/21 04:56:57;;;;;;;;;99.67;86.67;;;;;8.08;59.34;102400.31;5073253;28;45219;-73
2022/03/21 04:59:23;;;;;;;;;74.50;56.75;;;;;8.16;60.13;102414.88;5071476;28;47036;-73
2022/03/21 05:01:48;;;;;;;;;61.50;46.50;;;;;8.05;59.44;102393.16;5074791;28;45300;-73
2022/03/21 05:04:14;;;;;;;;;62.75;48.25;;;;;8.29;59.58;102434.97;5080219;27;45688;-72
2022/03/21 05:06:39;;;;;;;;;72.00;54.25;;;;;8.04;59.60;102378.19;5070505;27;45457;-73
2022/03/21 05:09:05;;;;;;;;;65.25;50.25;;;;;8.06;59.54;102381.78;5080034;28;45298;-73
2022/03/21 05:11:31;;;;;;;;;61.25;48.75;;;;;8.36;58.62;102428.31;5071792;28;45430;-72
2022/03/21 05:13:56;;;;;;;;;73.75;60.25;;;;;8.35;59.59;102421.25;5070052;28;45493;-72
2022/03/21 05:16:22;;;;;;;;;65.75;51.00;;;;;8.27;59.30;102416.41;5073423;28;45531;-72
2022/03/21 05:18:49;;;;;;;;;146.25;139.75;;;;;8.43;59.62;102434.09;5070157;28;48352;-72
2022/03/21 05:21:15;;;;;;;;;74.00;58.67;;;;;8.32;59.05;102415.75;5076446;28;45414;-72
2022/03/21 05:31:52;;;;;;;;;60.50;47.00;;;;;8.41;57.74;102446.25;5072965;28;45359;-73
2022/03/21 05:37:01;;;;;;;;;67.25;53.50;;;;;8.37;59.37;102431.03;5069043;28;45356;-73
2022/03/21 05:39:27;;;;;;;;;86.67;74.33;;;;;8.43;59.83;102447.25;5079586;28;45431;-73
2022/03/21 05:41:52;;;;;;;;;65.75;52.25;;;;;8.27;59.69;102423.41;5074131;28;46026;-74
2022/03/21 05:44:18;;;;;;;;;65.50;51.50;;;;;8.47;57.59;102446.63;5079613;27;45311;-73
2022/03/21 05:46:43;;;;;;;;;84.33;69.00;;;;;8.51;59.61;102452.97;5074552;27;45382;-73
2022/03/21 05:49:09;;;;;;;;;60.50;46.75;;;;;8.52;59.69;102450.44;5073948;28;45251;-73
2022/03/21 05:51:40;;;;;;;;;67.25;53.50;;;;;8.55;58.79;102451.44;5070655;28;45166;-73
2022/03/21 05:54:10;;;;;;;;;60.00;49.25;;;;;8.51;59.12;102439.78;5066742;28;45273;-73
2022/03/21 05:56:39;;;;;;;;;61.00;49.75;;;;;8.54;58.95;102441.69;5073328;28;45391;-73
2022/03/21 06:01:50;;;;;;;;;70.00;54.50;;;;;8.63;59.05;102458.97;5070089;28;45269;-73
2022/03/21 06:04:16;;;;;;;;;60.50;44.75;;;;;8.64;58.83;102463.41;5079248;27;45453;-73
2022/03/21 06:06:43;;;;;;;;;58.50;48.00;;;;;8.51;59.52;102440.72;5070438;27;44791;-73
2022/03/21 06:09:08;;;;;;;;;81.33;62.00;;;;;8.64;59.85;102467.78;5077085;28;47035;-73
2022/03/21 06:11:36;;;;;;;;;56.25;47.50;;;;;8.50;59.18;102444.16;5074923;27;45228;-73
2022/03/21 06:14:03;;;;;;;;;77.33;60.33;;;;;8.63;59.07;102472.16;5080026;27;45470;-74
2022/03/21 06:16:28;;;;;;;;;83.00;67.67;;;;;8.49;59.07;102455.53;5071865;27;45340;-73
2022/03/21 06:18:54;;;;;;;;;65.75;53.00;;;;;8.54;59.31;102461.06;5069133;28;46269;-73
2022/03/21 06:21:19;;;;;;;;;64.00;48.00;;;;;8.26;59.96;102434.75;5074481;28;45522;-73
2022/03/21 06:23:46;;;;;;;;;55.00;44.00;;;;;8.18;60.48;102425.50;5070536;28;45848;-73
2022/03/21 06:26:11;;;;;;;;;70.00;53.00;;;;;8.39;59.55;102461.06;5076423;28;45267;-73
2022/03/21 06:28:37;;;;;;;;;64.25;49.50;;;;;8.35;60.36;102464.31;5070419;28;45334;-73
2022/03/21 06:31:03;;;;;;;;;60.50;48.00;;;;;8.47;59.89;102487.88;5082822;27;45272;-73
2022/03/21 06:33:31;;;;;;;;;64.00;50.25;;;;;8.57;57.62;102507.75;5070305;27;45252;-73
2022/03/21 06:35:58;;;;;;;;;64.25;50.50;;;;;8.57;60.29;102497.22;5090645;27;47011;-73
2022/03/21 06:38:23;;;;;;;;;63.75;49.75;;;;;8.33;59.71;102467.66;5076840;28;47089;-74
2022/03/21 06:40:49;;;;;;;;;74.00;56.50;;;;;8.61;58.91;102512.41;5078099;27;48207;-73
2022/03/21 06:43:15;;;;;;;;;61.25;47.00;;;;;8.55;59.38;102504.16;5079424;27;45355;-73
2022/03/21 06:45:42;;;;;;;;;58.75;42.50;;;;;8.66;58.36;102510.97;5078730;27;45229;-73
2022/03/21 06:48:07;;;;;;;;;59.25;46.00;;;;;8.42;57.67;102471.78;5073672;27;46389;-73
2022/03/21 06:50:33;;;;;;;;;61.00;47.00;;;;;8.61;58.40;102509.78;5068666;28;45450;-73
2022/03/21 06:52:59;;;;;;;;;60.75;47.25;;;;;8.71;57.31;102526.25;5073546;28;45197;-74
2022/03/21 06:55:24;;;;;;;;;63.50;48.25;;;;;8.69;57.81;102519.06;5077753;28;45533;-74
2022/03/21 06:57:50;;;;;;;;;64.75;48.00;;;;;8.81;59.70;102524.16;5078916;27;46074;-73
2022/03/21 07:00:17;;;;;;;;;58.25;45.50;;;;;8.82;59.17;102520.69;5076408;27;45211;-74
2022/03/21 07:02:44;;;;;;;;;59.25;45.75;;;;;8.99;59.03;102537.50;5071144;28;45407;-73
2022/03/21 07:05:10;;;;;;;;;60.75;46.50;;;;;9.05;59.75;102533.50;5077414;27;45344;-73
2022/03/21 07:07:36;;;;;;;;;62.25;47.25;;;;;9.06;60.00;102527.41;5071418;28;45371;-73
2022/03/21 07:10:05;;;;;;;;;65.50;49.00;;;;;9.12;58.58;102521.56;5073955;27;45330;-73
2022/03/21 07:12:31;;;;;;;;;57.00;45.75;;;;;9.08;59.31;102503.75;5059424;28;45309;-72
2022/03/21 07:14:56;;;;;;;;;65.00;50.75;;;;;9.20;59.53;102512.38;5073271;28;45374;-73
2022/03/21 07:17:22;;;;;;;;;53.75;42.75;;;;;9.23;57.29;102499.34;5066967;28;45418;-73
2022/03/21 07:19:48;;;;;;;;;58.25;49.00;;;;;9.45;59.11;102542.81;5076148;28;45257;-73
2022/03/21 07:22:16;;;;;;;;;64.50;46.75;;;;;9.41;58.31;102523.25;5073020;27;45332;-73
2022/03/21 07:24:41;;;;;;;;;61.50;48.50;;;;;9.30;57.87;102490.97;5076478;28;46316;-73
2022/03/21 07:27:07;;;;;;;;;59.75;46.75;;;;;9.57;58.05;102522.38;5073514;28;46377;-73
2022/03/21 07:29:33;;;;;;;;;60.75;46.50;;;;;9.55;58.13;102514.38;5095675;27;45362;-73
2022/03/21 07:31:58;;;;;;;;;54.25;45.25;;;;;9.62;57.47;102511.25;5074877;28;45248;-73
2022/03/21 07:34:24;;;;;;;;;64.50;49.75;;;;;9.83;57.85;102547.56;5079906;28;45504;-73
2022/03/21 07:36:50;;;;;;;;;63.25;48.25;;;;;9.69;57.15;102498.38;5075726;27;46576;-74
2022/03/21 07:39:17;;;;;;;;;61.75;48.75;;;;;9.96;57.92;102539.50;5079993;28;45233;-74
2022/03/21 07:41:43;;;;;;;;;59.25;47.50;;;;;9.91;57.69;102513.66;5077055;27;45146;-73
2022/03/21 07:44:09;;;;;;;;;59.50;48.75;;;;;9.92;57.47;102499.66;5080182;28;45272;-73
2022/03/21 07:49:19;;;;;;;;;64.00;46.75;;;;;10.46;57.23;102535.16;5069892;28;45525;-73
2022/03/21 07:51:45;;;;;;;;;66.25;50.00;;;;;10.51;57.27;102534.59;5072367;27;45457;-73
2022/03/21 07:54:14;;;;;;;;;62.50;49.75;;;;;10.58;56.83;102521.69;5080948;27;45469;-73
2022/03/21 07:56:40;;;;;;;;;61.50;47.25;;;;;10.78;55.83;102533.28;5077310;28;47996;-73
2022/03/21 07:59:06;;;;;;;;;65.75;49.25;;;;;10.86;55.96;102524.91;5079679;28;45222;-73
2022/03/21 08:01:33;;;;;;;;;60.25;45.00;;;;;10.98;55.90;102541.41;5072711;27;45306;-73
2022/03/21 08:04:03;;;;;;;;;62.25;49.00;;;;;11.08;56.18;102537.47;5082910;27;46275;-73
2022/03/21 08:06:30;;;;;;;;;69.50;52.50;;;;;11.27;55.74;102546.34;5072103;28;46508;-73
2022/03/21 08:08:55;;;;;;;;;64.50;48.50;;;;;11.38;55.59;102547.78;5082271;27;45330;-73
2022/03/21 08:11:22;;;;;;;;;61.75;46.50;;;;;11.42;55.34;102539.16;5071617;28;45375;-73
2022/03/21 08:13:49;;;;;;;;;70.00;51.75;;;;;11.51;55.40;102542.25;5080465;28;46619;-74
2022/03/21 08:16:19;;;;;;;;;61.50;48.75;;;;;11.73;55.68;102557.41;5074994;28;45296;-73
2022/03/21 08:18:48;;;;;;;;;68.25;52.25;;;;;11.80;56.03;102532.16;5070540;28;45257;-73
2022/03/21 08:21:13;;;;;;;;;65.25;49.25;;;;;11.94;54.52;102528.44;5075647;28;45190;-73
2022/03/21 08:23:38;;;;;;;;;60.25;47.50;;;;;12.15;55.35;102531.13;5070356;28;45430;-73
2022/03/21 08:26:04;;;;;;;;;64.00;50.75;;;;;12.28;53.63;102499.06;5077955;28;45292;-73
2022/03/21 08:28:29;;;;;;;;;57.25;47.25;;;;;12.56;53.58;102507.31;5070515;27;45275;-73
2022/03/21 08:30:55;;;;;;;;;60.75;48.00;;;;;12.96;53.56;102544.44;5079277;27;45363;-73
2022/03/21 08:33:21;;;;;;;;;58.25;47.50;;;;;12.93;52.88;102501.84;5071349;27;45931;-73
2022/03/21 08:35:46;;;;;;;;;63.25;49.50;;;;;13.16;53.13;102521.38;5072835;28;47127;-73
2022/03/21 08:38:12;;;;;;;;;57.50;47.25;;;;;13.56;52.53;102544.31;5072268;28;45388;-72
2022/03/21 08:40:38;;;;;;;;;57.25;46.50;;;;;13.81;51.36;102544.41;5080136;28;45311;-72
2022/03/21 08:43:04;;;;;;;;;61.75;47.00;;;;;13.77;51.13;102523.88;5071929;28;46029;-72
2022/03/21 08:45:30;;;;;;;;;56.50;44.75;;;;;14.04;50.79;102531.09;5080007;28;45879;-72
2022/03/21 08:47:55;;;;;;;;;52.50;40.25;;;;;14.18;50.04;102523.66;5073708;27;45216;-72
2022/03/21 08:50:21;;;;;;;;;50.25;40.25;;;;;14.36;50.68;102520.75;5071519;28;45415;-73
2022/03/21 08:52:46;;;;;;;;;43.00;36.00;;;;;14.74;49.60;102539.03;5074298;28;45220;-72
2022/03/21 08:55:12;;;;;;;;;44.50;34.50;;;;;15.05;49.03;102540.09;5076065;28;48140;-73
2022/03/21 08:57:37;;;;;;;;;47.00;40.00;;;;;15.21;48.58;102546.84;5085009;27;46043;-72
2022/03/21 09:00:05;;;;;;;;;47.00;39.75;;;;;15.33;47.96;102549.00;5080633;28;45388;-72
2022/03/21 09:02:31;;;;;;;;;47.00;37.25;;;;;15.44;48.27;102539.59;5069729;28;47180;-72
2022/03/21 09:04:58;;;;;;;;;50.75;41.00;;;;;15.51;48.25;102527.34;5076252;27;45272;-73
2022/03/21 09:07:24;;;;;;;;;46.25;37.00;;;;;15.60;47.59;102520.56;5069482;28;45337;-72
2022/03/21 09:09:49;;;;;;;;;42.00;34.75;;;;;15.80;46.44;102529.22;5074518;28;45371;-73
2022/03/21 09:12:15;;;;;;;;;51.00;40.00;;;;;15.75;46.54;102496.16;5069060;28;45217;-73
2022/03/21 09:14:40;;;;;;;;;49.25;40.25;;;;;16.26;45.47;102529.66;5074526;28;45852;-73
2022/03/21 09:17:06;;;;;;;;;46.25;37.25;;;;;16.59;45.15;102534.16;5072580;27;45177;-73
2022/03/21 09:19:31;;;;;;;;;42.50;34.00;;;;;16.89;46.57;102518.09;5076700;28;45685;-73
2022/03/21 09:21:57;;;;;;;;;43.00;34.75;;;;;16.85;42.56;102525.09;5073867;28;45434;-73
2022/03/21 09:24:23;;;;;;;;;32.75;30.50;;;;;16.90;44.95;102496.72;5076506;28;46495;-73
2022/03/21 09:26:50;;;;;;;;;27.50;27.25;;;;;17.22;43.64;102513.59;5074192;28;45366;-73
2022/03/21 09:29:15;;;;;;;;;40.25;32.75;;;;;17.48;42.10;102528.44;5076618;28;45331;-73
2022/03/21 09:31:40;;;;;;;;;40.75;31.00;;;;;17.55;44.63;102495.63;5075474;28;45330;-73
2022/03/21 09:34:08;;;;;;;;;29.00;27.25;;;;;17.79;44.24;102506.91;5076476;28;46036;-73
2022/03/21 09:36:34;;;;;;;;;29.50;29.50;;;;;17.88;42.64;102493.72;5076407;27;45356;-73
2022/03/21 09:38:59;;;;;;;;;33.33;27.00;;;;;18.02;42.51;102517.19;5077445;28;45263;-73
2022/03/21 09:41:30;;;;;;;;;34.50;30.00;;;;;18.07;41.41;102527.13;5076857;28;45488;-73
2022/03/21 09:43:57;;;;;;;;;27.25;27.25;;;;;17.96;40.84;102490.31;5076637;28;46269;-73
2022/03/21 09:46:23;;;;;;;;;35.67;32.00;;;;;18.06;40.51;102519.06;5069849;28;45421;-73
2022/03/21 09:48:53;;;;;;;;;33.00;30.00;;;;;18.00;41.93;102509.13;5074793;28;45280;-73
2022/03/21 09:51:24;;;;;;;;;34.33;31.33;;;;;18.15;40.44;102521.94;5076136;28;46414;-73
2022/03/21 09:53:50;;;;;;;;;25.67;22.33;;;;;18.29;42.49;102517.78;5079687;27;45276;-73
2022/03/21 09:56:16;;;;;;;;;28.67;26.00;;;;;18.21;41.58;102506.00;5075216;27;45414;-73
2022/03/21 09:58:43;;;;;;;;;27.00;26.00;;;;;18.41;40.10;102509.06;5078047;28;45667;-73
2022/03/21 10:01:11;;;;;;;;;27.00;24.33;;;;;18.60;40.12;102486.22;5075898;28;47211;-73
2022/03/21 10:03:38;;;;;;;;;33.00;27.33;;;;;18.91;39.84;102497.53;5077878;28;46405;-73
2022/03/21 10:06:34;;;;;;;;;29.00;27.67;;;;;19.21;39.53;102505.13;5070464;27;45370;-73
2022/03/21 10:09:31;;;;;;;;;24.33;22.00;;;;;19.58;41.23;102516.47;5069174;28;45316;-73
2022/03/21 10:11:58;;;;;;;;;27.00;23.67;;;;;19.83;39.59;102507.91;5066393;28;45248;-73
2022/03/21 10:14:26;;;;;;;;;26.67;24.00;;;;;20.02;38.96;102508.13;5072500;28;46262;-74
2022/03/21 10:17:03;;;;;;;;;26.00;24.67;;;;;20.27;37.56;102507.53;5068888;27;45285;-74
2022/03/21 10:19:43;;;;;;;;;26.00;21.67;;;;;20.32;38.98;102468.19;5071366;28;45340;-73
2022/03/21 10:22:14;;;;;;;;;22.33;22.00;;;;;20.67;37.15;102489.19;5067772;28;45730;-73
2022/03/21 10:24:44;;;;;;;;;22.00;20.33;;;;;20.93;38.18;102508.25;5074128;28;47364;-73
2022/03/21 10:27:26;;;;;;;;;17.33;17.33;;;;;20.89;37.30;102506.41;5070859;28;45344;-73
2022/03/21 10:29:54;;;;;;;;;23.67;22.33;;;;;20.88;35.92;102475.03;5066724;28;45245;-73
2022/03/21 10:32:42;;;;;;;;;15.67;14.00;;;;;21.09;36.81;102462.66;5070284;28;45296;-73
2022/03/21 10:35:17;;;;;;;;;17.67;17.67;;;;;21.50;36.78;102486.28;5070980;28;47186;-73
2022/03/21 10:37:46;;;;;;;;;23.33;21.67;;;;;21.57;35.25;102493.50;5071685;27;45387;-73
2022/03/21 10:40:26;;;;;;;;;31.00;26.00;;;;;21.45;34.13;102483.56;5078001;28;45245;-73
2022/03/21 10:43:13;;;;;;;;;25.67;24.33;;;;;21.54;34.90;102485.44;5078900;27;45407;-74
2022/03/21 10:45:40;;;;;;;;;33.00;29.33;;;;;21.67;34.28;102479.19;5077900;27;46206;-75
2022/03/21 10:48:11;;;;;;;;;23.33;19.33;;;;;21.65;33.81;102456.78;5074060;27;45269;-74
2022/03/21 10:50:42;;;;;;;;;20.67;20.67;;;;;21.66;33.91;102432.53;5071690;28;45419;-75
2022/03/21 10:53:45;;;;;;;;;21.67;20.67;;;;;22.11;36.21;102487.47;5078083;27;45189;-73
2022/03/21 10:56:11;;;;;;;;;26.33;21.00;;;;;21.88;35.07;102473.94;5076277;27;46351;-74
2022/03/21 10:58:39;;;;;;;;;24.00;21.00;;;;;22.06;34.27;102481.16;5076744;28;45257;-74
2022/03/21 11:01:17;;;;;;;;;14.00;13.00;;;;;21.90;33.23;102479.28;5070472;27;45488;-74
2022/03/21 11:03:45;;;;;;;;;21.00;20.00;;;;;21.94;34.05;102473.06;5078584;28;45336;-74
2022/03/21 11:06:12;;;;;;;;;22.00;19.00;;;;;21.88;34.26;102459.56;5069485;28;45292;-73
2022/03/21 11:08:38;;;;;;;;;21.67;19.33;;;;;21.77;33.42;102466.69;5079241;27;45367;-73
2022/03/21 11:11:05;;;;;;;;;20.33;19.33;;;;;22.03;33.06;102459.59;5073873;28;45731;-74
2022/03/21 11:13:31;;;;;;;;;17.00;15.00;;;;;21.81;33.23;102468.50;5078735;28;45704;-74
2022/03/21 11:15:58;;;;;;;;;17.67;16.00;;;;;21.85;33.19;102456.88;5073630;27;45427;-73
2022/03/21 11:18:25;;;;;;;;;15.33;12.67;;;;;21.95;32.23;102468.56;5078621;28;45385;-73
2022/03/21 11:20:52;;;;;;;;;18.67;17.33;;;;;22.19;34.65;102468.69;5076016;27;45416;-73
2022/03/21 11:23:18;;;;;;;;;19.67;18.00;;;;;22.39;33.22;102460.63;5067843;27;45237;-74
2022/03/21 11:25:52;;;;;;;;;21.33;19.00;;;;;22.47;33.95;102428.31;5077445;28;46563;-73
2022/03/21 11:28:31;;;;;;;;;16.33;16.00;;;;;22.95;31.63;102445.41;5076114;28;45257;-73
2022/03/21 11:31:06;;;;;;;;;16.00;16.00;;;;;23.13;32.76;102453.47;5077821;27;45366;-73
2022/03/21 11:33:45;;;;;;;;;11.00;11.00;;;;;23.08;32.78;102417.56;5069979;27;45479;-73
2022/03/21 11:36:12;;;;;;;;;14.33;12.00;;;;;23.41;33.32;102430.06;5077771;28;45263;-74